Time;durP1;ratioP1;P1;durP2;ratioP2;P2;SDS_P1;SDS_P2;PMS_P1;PMS_P2;Temp;Humidity;BMP_temperature;BMP_pressure;BME280_temperature;BME280_humidity;BME280_pressure;Samples;Min_cycle;Max_cycle;Signal;HPM_P1;HPM_P2
2024/01/29 00:02:23;;;;;;;6.43;2.80;;;4.70;99.90;;;;;;5024286;28;20498;-35
2024/01/29 00:04:49;;;;;;;5.78;2.83;;;4.70;99.90;;;;;;5023179;28;20081;-35
2024/01/29 00:07:15;;;;;;;3.67;2.03;;;4.60;99.90;;;;;;5007673;28;20417;-36
2024/01/29 00:09:41;;;;;;;5.78;2.80;;;4.60;99.90;;;;;;5024640;28;20053;-35
2024/01/29 00:12:07;;;;;;;5.45;2.95;;;4.60;99.90;;;;;;5025667;28;20156;-35
2024/01/29 00:14:33;;;;;;;5.57;2.88;;;4.60;99.90;;;;;;5028204;28;20475;-36
2024/01/29 00:17:00;;;;;;;6.05;2.95;;;4.60;99.90;;;;;;5025159;28;20053;-35
2024/01/29 00:19:26;;;;;;;4.43;2.92;;;4.60;99.90;;;;;;5025140;28;20124;-36
2024/01/29 00:21:52;;;;;;;3.78;2.45;;;4.60;99.90;;;;;;5023211;28;20128;-35
2024/01/29 00:24:17;;;;;;;4.63;2.75;;;4.60;99.90;;;;;;5021259;28;20062;-35
2024/01/29 00:26:44;;;;;;;4.70;2.85;;;4.60;99.90;;;;;;5026308;28;20584;-36
2024/01/29 00:29:10;;;;;;;6.50;2.80;;;4.60;99.90;;;;;;5021527;28;20136;-35
2024/01/29 00:31:36;;;;;;;4.85;2.90;;;4.60;99.90;;;;;;5036197;28;20045;-36
2024/01/29 00:34:01;;;;;;;4.95;3.00;;;4.50;99.90;;;;;;5031293;28;20359;-35
2024/01/29 00:36:28;;;;;;;4.45;2.65;;;4.50;99.90;;;;;;5016382;28;20136;-35
2024/01/29 00:38:54;;;;;;;4.53;2.85;;;4.50;99.90;;;;;;5022874;28;20057;-35
2024/01/29 00:41:19;;;;;;;4.63;2.80;;;4.50;99.90;;;;;;5025921;28;20541;-36
2024/01/29 00:43:45;;;;;;;4.32;2.80;;;4.50;99.90;;;;;;5028241;28;20106;-35
2024/01/29 00:46:11;;;;;;;5.45;2.88;;;4.50;99.90;;;;;;5020904;28;20057;-35
2024/01/29 00:48:36;;;;;;;6.95;2.80;;;4.50;99.90;;;;;;5029490;28;20049;-35
2024/01/29 00:51:03;;;;;;;5.00;2.92;;;4.40;99.90;;;;;;5024467;28;20045;-35
2024/01/29 00:53:29;;;;;;;4.43;3.03;;;4.40;99.90;;;;;;5029670;28;20056;-38
2024/01/29 00:55:55;;;;;;;4.43;2.88;;;4.40;99.90;;;;;;5030349;28;20053;-35
2024/01/29 00:58:21;;;;;;;5.47;2.80;;;4.40;99.90;;;;;;5028216;28;20058;-35
2024/01/29 01:00:48;;;;;;;4.60;2.72;;;4.40;99.90;;;;;;5031413;28;20056;-34
2024/01/29 01:03:14;;;;;;;5.70;3.10;;;4.30;99.90;;;;;;5029401;28;20132;-36
2024/01/29 01:05:40;;;;;;;4.35;2.95;;;4.30;99.90;;;;;;5027261;28;20508;-34
2024/01/29 01:08:06;;;;;;;9.13;3.00;;;4.30;99.90;;;;;;5027247;28;20061;-35
2024/01/29 01:10:32;;;;;;;5.18;3.05;;;4.30;99.90;;;;;;5030894;28;20564;-35
2024/01/29 01:12:57;;;;;;;5.57;2.80;;;4.30;99.90;;;;;;5025335;28;20091;-35
2024/01/29 01:15:23;;;;;;;4.40;2.72;;;4.30;99.90;;;;;;5019122;28;20050;-35
2024/01/29 01:17:49;;;;;;;5.85;2.90;;;4.30;99.90;;;;;;5028280;28;20045;-35
2024/01/29 01:20:15;;;;;;;4.85;2.60;;;4.20;99.90;;;;;;5023918;28;20213;-35
2024/01/29 01:22:40;;;;;;;6.07;2.97;;;4.20;99.90;;;;;;5028519;28;20064;-35
2024/01/29 01:25:07;;;;;;;5.22;2.80;;;4.20;99.90;;;;;;5023340;28;20119;-35
2024/01/29 01:27:33;;;;;;;4.65;3.00;;;4.20;99.90;;;;;;5033735;28;20041;-36
2024/01/29 01:29:59;;;;;;;4.28;2.50;;;4.20;99.90;;;;;;5022929;28;20111;-35
2024/01/29 01:32:25;;;;;;;5.00;3.08;;;4.20;99.90;;;;;;5029283;28;20057;-35
2024/01/29 01:34:50;;;;;;;6.45;3.13;;;4.20;99.90;;;;;;5032686;28;20057;-35
2024/01/29 01:37:16;;;;;;;5.38;2.97;;;4.10;99.90;;;;;;5027992;28;20569;-35
2024/01/29 01:39:42;;;;;;;6.10;2.88;;;4.10;99.90;;;;;;5035053;28;20053;-35
2024/01/29 01:42:08;;;;;;;4.60;2.95;;;4.10;99.90;;;;;;5022068;28;20049;-35
2024/01/29 01:44:34;;;;;;;8.50;3.40;;;4.10;99.90;;;;;;5033829;28;20082;-35
2024/01/29 01:47:00;;;;;;;7.60;3.65;;;4.00;99.90;;;;;;5032327;28;20053;-35
2024/01/29 01:49:27;;;;;;;5.18;2.90;;;4.00;99.90;;;;;;5028402;28;20109;-35
2024/01/29 01:51:53;;;;;;;5.47;3.00;;;4.00;99.90;;;;;;5026310;28;20045;-35
2024/01/29 01:54:19;;;;;;;5.38;3.20;;;3.90;99.90;;;;;;5025825;28;20049;-36
2024/01/29 01:56:47;;;;;;;6.00;3.10;;;3.90;99.90;;;;;;5030582;28;20096;-35
2024/01/29 01:59:13;;;;;;;5.53;2.90;;;3.90;99.90;;;;;;5029770;28;20084;-35
2024/01/29 02:01:39;;;;;;;4.95;2.97;;;3.80;99.90;;;;;;5036698;28;20057;-35
2024/01/29 02:04:05;;;;;;;7.25;6.60;;;3.80;99.90;;;;;;5032409;28;20479;-35
2024/01/29 02:06:31;;;;;;;21.27;19.92;;;3.80;99.90;;;;;;5038413;28;20084;-35
2024/01/29 02:08:58;;;;;;;17.63;16.35;;;3.70;99.90;;;;;;5037381;28;20052;-35
2024/01/29 02:11:24;;;;;;;10.65;9.85;;;3.70;99.90;;;;;;5031497;28;20068;-35
2024/01/29 02:13:49;;;;;;;17.15;16.15;;;3.70;99.90;;;;;;5031754;28;20040;-35
2024/01/29 02:16:15;;;;;;;14.90;13.73;;;3.70;99.90;;;;;;5028753;28;20152;-35
2024/01/29 02:18:41;;;;;;;14.43;13.43;;;3.70;99.90;;;;;;5025098;28;20045;-35
2024/01/29 02:21:07;;;;;;;15.32;14.30;;;3.60;99.90;;;;;;5027536;28;20034;-35
2024/01/29 02:23:32;;;;;;;16.77;15.63;;;3.60;99.90;;;;;;5031782;28;20403;-35
2024/01/29 02:25:58;;;;;;;14.55;13.50;;;3.60;99.90;;;;;;5033343;28;20053;-35
2024/01/29 02:28:25;;;;;;;12.10;11.18;;;3.60;99.90;;;;;;5035131;28;20107;-35
2024/01/29 02:30:51;;;;;;;22.80;21.30;;;3.60;99.90;;;;;;5029427;28;20277;-35
2024/01/29 02:33:17;;;;;;;19.88;18.67;;;3.60;99.90;;;;;;5033244;28;20045;-35
2024/01/29 02:35:45;;;;;;;19.02;17.73;;;3.60;99.90;;;;;;5035325;28;20052;-35
2024/01/29 02:38:11;;;;;;;21.08;19.67;;;3.60;99.90;;;;;;5029744;28;20041;-35
2024/01/29 02:40:37;;;;;;;17.75;16.48;;;3.60;99.90;;;;;;5030115;28;20384;-35
2024/01/29 02:43:03;;;;;;;17.17;16.02;;;3.60;99.90;;;;;;5031513;28;20064;-35
2024/01/29 02:45:29;;;;;;;17.48;16.17;;;3.60;99.90;;;;;;5031649;28;20048;-35
2024/01/29 02:47:55;;;;;;;21.58;20.13;;;3.60;99.90;;;;;;5009745;28;20106;-35
2024/01/29 02:50:22;;;;;;;21.73;20.40;;;3.60;99.90;;;;;;5031424;28;20517;-35
2024/01/29 02:52:49;;;;;;;18.35;17.05;;;3.60;99.90;;;;;;5031327;28;20115;-35
2024/01/29 02:55:14;;;;;;;20.48;19.10;;;3.60;99.90;;;;;;5025060;28;20050;-35
2024/01/29 02:57:40;;;;;;;21.25;19.85;;;3.50;99.90;;;;;;5033794;28;20450;-35
2024/01/29 03:00:06;;;;;;;14.07;13.02;;;3.50;99.90;;;;;;5032193;28;20057;-35
2024/01/29 03:02:32;;;;;;;14.95;13.73;;;3.50;99.90;;;;;;5031104;28;20515;-35
2024/01/29 03:04:58;;;;;;;11.98;10.88;;;3.50;99.90;;;;;;5028147;28;20129;-35
2024/01/29 03:07:23;;;;;;;15.18;14.02;;;3.50;99.90;;;;;;5029101;28;20107;-35
2024/01/29 03:09:49;;;;;;;18.55;17.15;;;3.50;99.90;;;;;;5028290;28;20570;-35
2024/01/29 03:12:15;;;;;;;19.90;18.52;;;3.50;99.90;;;;;;5030200;28;20061;-36
2024/01/29 03:14:41;;;;;;;14.98;13.90;;;3.50;99.90;;;;;;5030064;28;20053;-35
2024/01/29 03:17:08;;;;;;;14.73;13.73;;;3.40;99.90;;;;;;5028648;28;20124;-35
2024/01/29 03:19:33;;;;;;;19.50;18.23;;;3.40;99.90;;;;;;5027716;28;20070;-34
2024/01/29 03:21:59;;;;;;;16.35;15.07;;;3.40;99.90;;;;;;5026753;28;20057;-35
2024/01/29 03:24:25;;;;;;;5.15;3.50;;;3.40;99.90;;;;;;5033288;28;20091;-35
2024/01/29 03:26:50;;;;;;;13.75;12.73;;;3.40;99.90;;;;;;5030114;28;20450;-35
2024/01/29 03:29:16;;;;;;;16.95;15.68;;;3.40;99.90;;;;;;5027106;28;20061;-35
2024/01/29 03:31:42;;;;;;;16.33;15.07;;;3.40;99.90;;;;;;5029046;28;20988;-35
2024/01/29 03:34:08;;;;;;;14.32;13.23;;;3.30;99.90;;;;;;5014304;28;20059;-35
2024/01/29 03:36:33;;;;;;;18.45;17.23;;;3.40;99.90;;;;;;5038701;28;20060;-35
2024/01/29 03:38:59;;;;;;;14.02;12.73;;;3.30;99.90;;;;;;5014098;28;20141;-35
2024/01/29 03:41:25;;;;;;;12.52;11.63;;;3.30;99.90;;;;;;5033697;28;20084;-33
2024/01/29 03:43:51;;;;;;;13.77;12.73;;;3.40;99.90;;;;;;5037016;28;20052;-34
2024/01/29 03:46:17;;;;;;;15.18;14.00;;;3.40;99.90;;;;;;5031165;28;20054;-34
2024/01/29 03:48:42;;;;;;;5.50;3.40;;;3.40;99.90;;;;;;5028235;28;20057;-34
2024/01/29 03:51:09;;;;;;;7.88;3.47;;;3.40;99.90;;;;;;5022331;28;20049;-34
2024/01/29 03:53:34;;;;;;;5.10;2.97;;;3.40;99.90;;;;;;5026319;28;20072;-34
2024/01/29 03:56:00;;;;;;;6.07;3.55;;;3.40;99.90;;;;;;5033308;28;20049;-35
2024/01/29 03:58:26;;;;;;;10.30;9.40;;;3.40;99.90;;;;;;5027967;28;20443;-34
2024/01/29 04:00:52;;;;;;;15.00;13.85;;;3.50;99.90;;;;;;5030784;28;20045;-35
2024/01/29 04:03:17;;;;;;;15.38;14.27;;;3.50;99.90;;;;;;5031079;28;20060;-34
2024/01/29 04:05:46;;;;;;;10.07;9.30;;;3.50;99.90;;;;;;5033748;28;20553;-35
2024/01/29 04:08:12;;;;;;;11.80;10.82;;;3.40;99.90;;;;;;5034203;28;20443;-34
2024/01/29 04:10:38;;;;;;;12.43;11.50;;;3.40;99.90;;;;;;5024176;28;20115;-34
2024/01/29 04:13:04;;;;;;;12.55;11.65;;;3.40;99.90;;;;;;5032419;28;20085;-34
2024/01/29 04:15:30;;;;;;;8.27;7.22;;;3.40;99.90;;;;;;5009126;28;20144;-33
2024/01/29 04:17:56;;;;;;;13.10;12.02;;;3.40;99.90;;;;;;5026920;28;20053;-35
2024/01/29 04:20:21;;;;;;;10.13;8.73;;;3.40;99.90;;;;;;5030980;28;20403;-34
2024/01/29 04:22:47;;;;;;;12.07;11.18;;;3.40;99.90;;;;;;5030667;28;20144;-34
2024/01/29 04:25:13;;;;;;;8.18;7.40;;;3.40;99.90;;;;;;5033608;28;20060;-34
2024/01/29 04:27:39;;;;;;;12.05;11.00;;;3.40;99.90;;;;;;5027192;28;20057;-34
2024/01/29 04:30:05;;;;;;;9.95;9.13;;;3.40;99.90;;;;;;5029624;28;20458;-34
2024/01/29 04:32:31;;;;;;;11.10;9.75;;;3.40;99.90;;;;;;5025472;28;20072;-34
2024/01/29 04:34:56;;;;;;;7.65;6.88;;;3.40;99.90;;;;;;5033568;28;20477;-34
2024/01/29 04:37:23;;;;;;;5.63;3.28;;;3.30;99.90;;;;;;5026608;28;20097;-34
2024/01/29 04:39:49;;;;;;;8.45;7.28;;;3.30;99.90;;;;;;5028569;28;20044;-35
2024/01/29 04:42:15;;;;;;;12.50;11.48;;;3.30;99.90;;;;;;5029680;28;20049;-34
2024/01/29 04:44:41;;;;;;;12.27;11.25;;;3.30;99.90;;;;;;5030848;28;20106;-34
2024/01/29 04:47:06;;;;;;;7.90;7.10;;;3.30;99.90;;;;;;5028357;28;20057;-34
2024/01/29 04:49:32;;;;;;;11.57;10.68;;;3.30;99.90;;;;;;5028780;28;20140;-34
2024/01/29 04:51:58;;;;;;;8.10;7.35;;;3.30;99.90;;;;;;5027859;28;20061;-34
2024/01/29 04:54:23;;;;;;;10.60;9.73;;;3.30;99.90;;;;;;5029033;28;20051;-35
2024/01/29 04:56:49;;;;;;;11.80;10.70;;;3.30;99.90;;;;;;5034024;28;20052;-35
2024/01/29 04:59:15;;;;;;;10.32;9.52;;;3.30;99.90;;;;;;5027479;28;20049;-35
2024/01/29 05:01:40;;;;;;;8.05;7.25;;;3.30;99.90;;;;;;5030218;28;20057;-35
2024/01/29 05:04:07;;;;;;;11.13;10.13;;;3.30;99.90;;;;;;5031485;28;20064;-34
2024/01/29 05:06:33;;;;;;;9.57;8.77;;;3.30;99.90;;;;;;5025679;28;20053;-34
2024/01/29 05:09:00;;;;;;;9.82;8.82;;;3.30;99.90;;;;;;5030650;28;20502;-35
2024/01/29 05:11:26;;;;;;;8.02;7.22;;;3.40;99.90;;;;;;5031032;28;20049;-34
2024/01/29 05:13:53;;;;;;;8.27;7.47;;;3.40;99.90;;;;;;5033457;28;20544;-34
2024/01/29 05:16:18;;;;;;;7.00;6.25;;;3.40;99.90;;;;;;5008715;28;20056;-35
2024/01/29 05:18:44;;;;;;;9.15;6.65;;;3.40;99.90;;;;;;5029755;28;20053;-34
2024/01/29 05:21:12;;;;;;;9.35;8.55;;;3.40;99.90;;;;;;5031191;28;20037;-34
2024/01/29 05:23:37;;;;;;;6.72;5.57;;;3.40;99.90;;;;;;5023656;28;20139;-35
2024/01/29 05:26:04;;;;;;;8.65;7.78;;;3.40;99.90;;;;;;5026716;28;20118;-34
2024/01/29 05:28:30;;;;;;;7.25;6.10;;;3.40;99.90;;;;;;5031874;28;20044;-35
2024/01/29 05:30:56;;;;;;;8.82;3.97;;;3.40;99.90;;;;;;5042350;28;20057;-35
2024/01/29 05:33:21;;;;;;;7.93;3.90;;;3.40;99.90;;;;;;5032320;28;20056;-34
2024/01/29 05:35:47;;;;;;;5.85;3.95;;;3.40;99.90;;;;;;5035841;28;20122;-35
2024/01/29 05:38:13;;;;;;;5.93;3.97;;;3.40;99.90;;;;;;5036003;28;20395;-34
2024/01/29 05:40:39;;;;;;;8.43;6.57;;;3.30;99.90;;;;;;5030140;28;20673;-35
2024/01/29 05:43:04;;;;;;;9.38;8.35;;;3.30;99.90;;;;;;5035453;28;20049;-35
2024/01/29 05:45:30;;;;;;;8.10;7.32;;;3.30;99.90;;;;;;5036749;28;20084;-33
2024/01/29 05:47:56;;;;;;;6.45;5.70;;;3.20;99.90;;;;;;5037557;28;20111;-34
2024/01/29 05:50:21;;;;;;;8.20;7.47;;;3.20;99.90;;;;;;5030745;28;20049;-34
2024/01/29 05:52:47;;;;;;;8.35;6.68;;;3.20;99.90;;;;;;5034971;28;20045;-35
2024/01/29 05:55:13;;;;;;;8.18;7.38;;;3.10;99.90;;;;;;5034094;28;20052;-34
2024/01/29 05:57:39;;;;;;;8.05;6.60;;;3.10;99.90;;;;;;5030175;28;20056;-35
2024/01/29 06:00:09;;;;;;;9.98;8.48;;;3.00;99.90;;;;;;5031494;28;20053;-35
2024/01/29 06:02:39;;;;;;;8.40;7.53;;;3.00;99.90;;;;;;5029220;28;20053;-35
2024/01/29 06:05:05;;;;;;;10.43;9.45;;;3.00;99.90;;;;;;5036876;28;20139;-35
2024/01/29 06:07:31;;;;;;;9.77;8.23;;;3.00;99.90;;;;;;5035353;28;20133;-35
2024/01/29 06:09:56;;;;;;;9.43;8.63;;;3.00;99.90;;;;;;5031330;28;20486;-39
2024/01/29 06:12:22;;;;;;;8.57;7.70;;;3.00;99.90;;;;;;5039870;28;20140;-35
2024/01/29 06:14:48;;;;;;;14.13;12.68;;;3.00;99.90;;;;;;5033908;28;20116;-35
2024/01/29 06:17:13;;;;;;;24.17;21.38;;;3.00;99.90;;;;;;5036883;28;21358;-35
2024/01/29 06:19:41;;;;;;;14.43;12.70;;;3.10;99.90;;;;;;5033774;28;20065;-34
2024/01/29 06:22:06;;;;;;;10.98;10.07;;;3.10;99.90;;;;;;5036714;28;20049;-35
2024/01/29 06:24:32;;;;;;;11.35;10.27;;;3.20;99.90;;;;;;5035038;28;20495;-35
2024/01/29 06:26:58;;;;;;;10.02;9.13;;;3.20;99.90;;;;;;5030232;28;20053;-35
2024/01/29 06:29:23;;;;;;;10.75;9.65;;;3.20;99.90;;;;;;5031628;28;20049;-35
2024/01/29 06:31:49;;;;;;;11.80;10.63;;;3.30;99.90;;;;;;5031858;28;20395;-34
2024/01/29 06:34:15;;;;;;;9.82;8.80;;;3.30;99.90;;;;;;5028996;28;20383;-35
2024/01/29 06:36:40;;;;;;;9.38;8.20;;;3.30;99.90;;;;;;5029389;28;20061;-35
2024/01/29 06:39:07;;;;;;;10.45;9.57;;;3.30;99.90;;;;;;5026304;28;20172;-35
2024/01/29 06:41:33;;;;;;;10.55;9.63;;;3.20;99.90;;;;;;5028336;28;20085;-35
2024/01/29 06:43:58;;;;;;;11.07;10.13;;;3.20;99.90;;;;;;5031145;28;20480;-34
2024/01/29 06:46:24;;;;;;;12.32;10.50;;;3.20;99.90;;;;;;5028880;28;20045;-34
2024/01/29 06:48:50;;;;;;;14.75;13.55;;;3.20;99.90;;;;;;5027433;28;20053;-34
2024/01/29 06:51:16;;;;;;;13.77;12.63;;;3.20;99.90;;;;;;5026115;28;20065;-35
2024/01/29 06:53:42;;;;;;;11.55;10.43;;;3.10;99.90;;;;;;5028378;28;20053;-35
2024/01/29 06:56:08;;;;;;;12.98;12.00;;;3.10;99.90;;;;;;5028984;28;20041;-35
2024/01/29 06:58:37;;;;;;;11.48;10.43;;;3.10;99.90;;;;;;5027515;28;20395;-34
2024/01/29 07:01:06;;;;;;;14.73;13.55;;;3.10;99.90;;;;;;5025337;28;20475;-35
2024/01/29 07:03:32;;;;;;;13.60;12.52;;;3.00;99.90;;;;;;5030171;28;21072;-34
2024/01/29 07:05:58;;;;;;;19.13;17.83;;;3.00;99.90;;;;;;5028059;28;20050;-35
2024/01/29 07:08:24;;;;;;;17.27;15.77;;;3.00;99.90;;;;;;5029607;28;20103;-34
2024/01/29 07:10:50;;;;;;;14.50;13.07;;;3.00;99.90;;;;;;5025445;28;20061;-34
2024/01/29 07:13:16;;;;;;;16.85;15.63;;;3.00;99.90;;;;;;5023050;28;20053;-35
2024/01/29 07:15:42;;;;;;;17.42;16.13;;;2.90;99.90;;;;;;5025593;28;20056;-34
2024/01/29 07:18:09;;;;;;;18.85;17.63;;;2.90;99.90;;;;;;5030714;28;20423;-35
2024/01/29 07:20:39;;;;;;;26.75;25.05;;;2.90;99.90;;;;;;5030920;28;20053;-35
2024/01/29 07:23:08;;;;;;;24.38;22.67;;;2.90;99.90;;;;;;5013101;28;20061;-35
2024/01/29 07:25:40;;;;;;;30.48;28.63;;;2.90;99.90;;;;;;5033975;28;20052;-34
2024/01/29 07:28:06;;;;;;;39.47;37.25;;;2.90;99.90;;;;;;5031741;28;20259;-35
2024/01/29 07:30:32;;;;;;;30.27;28.45;;;2.80;99.90;;;;;;5028396;28;20052;-34
2024/01/29 07:32:59;;;;;;;31.10;29.23;;;2.90;99.90;;;;;;5031299;28;20053;-35
2024/01/29 07:35:25;;;;;;;38.08;35.60;;;2.90;99.90;;;;;;5033720;28;20060;-34
2024/01/29 07:37:52;;;;;;;30.80;28.85;;;2.90;99.90;;;;;;5031975;28;20059;-35
2024/01/29 07:40:19;;;;;;;36.90;34.85;;;2.90;99.90;;;;;;5034379;28;20045;-35
2024/01/29 07:42:45;;;;;;;43.38;40.90;;;2.90;99.90;;;;;;5031469;28;20041;-34
2024/01/29 07:45:11;;;;;;;32.17;30.00;;;3.00;99.90;;;;;;5031504;28;20053;-35
2024/01/29 07:47:37;;;;;;;33.75;31.73;;;3.00;99.90;;;;;;5026622;28;20424;-34
2024/01/29 07:50:04;;;;;;;30.13;28.15;;;3.00;99.90;;;;;;5028080;28;20054;-34
2024/01/29 07:52:29;;;;;;;39.50;37.20;;;3.10;99.90;;;;;;5028380;28;20052;-35
2024/01/29 07:54:55;;;;;;;29.20;27.45;;;3.10;99.90;;;;;;5023664;28;20049;-35
2024/01/29 07:57:21;;;;;;;28.65;26.85;;;3.20;99.90;;;;;;5029060;28;20140;-34
2024/01/29 07:59:46;;;;;;;22.23;20.73;;;3.20;99.90;;;;;;5021774;28;20060;-36
2024/01/29 08:02:12;;;;;;;19.77;18.42;;;3.20;99.90;;;;;;5030368;28;20422;-35
2024/01/29 08:04:38;;;;;;;22.52;21.10;;;3.20;99.90;;;;;;5031556;28;20049;-34
2024/01/29 08:07:04;;;;;;;20.30;18.83;;;3.30;99.90;;;;;;5031427;28;20053;-34
2024/01/29 08:09:29;;;;;;;20.92;19.42;;;3.30;99.90;;;;;;5028021;28;20969;-34
2024/01/29 08:11:55;;;;;;;16.55;15.30;;;3.30;99.90;;;;;;5031563;28;20132;-34
2024/01/29 08:14:21;;;;;;;15.60;14.35;;;3.40;99.90;;;;;;5031941;28;20120;-36
2024/01/29 08:16:47;;;;;;;15.52;14.32;;;3.40;99.90;;;;;;5025918;28;20399;-36
2024/01/29 08:19:13;;;;;;;14.80;13.60;;;3.40;99.90;;;;;;5031041;28;20041;-34
2024/01/29 08:21:38;;;;;;;9.57;4.70;;;3.50;99.90;;;;;;5026783;28;20440;-33
2024/01/29 08:24:05;;;;;;;7.15;5.03;;;3.50;99.90;;;;;;5032986;28;20494;-33
2024/01/29 08:26:31;;;;;;;8.20;4.93;;;3.60;99.90;;;;;;5011336;28;20512;-36
2024/01/29 08:28:58;;;;;;;6.13;4.50;;;3.70;99.90;;;;;;5031164;28;20072;-36
2024/01/29 08:31:29;;;;;;;10.02;5.22;;;3.70;99.90;;;;;;5027715;28;20045;-33
2024/01/29 08:33:55;;;;;;;7.53;4.90;;;3.80;99.90;;;;;;5023690;28;20127;-34
2024/01/29 08:36:21;;;;;;;6.70;4.90;;;3.80;99.90;;;;;;5024594;28;20906;-33
2024/01/29 08:38:47;;;;;;;7.40;4.97;;;3.90;99.90;;;;;;5026671;28;20110;-34
2024/01/29 08:41:16;;;;;;;7.82;5.20;;;4.00;99.90;;;;;;5027366;28;20952;-34
2024/01/29 08:43:41;;;;;;;8.38;5.03;;;4.10;99.90;;;;;;5029964;28;20049;-35
2024/01/29 08:46:07;;;;;;;9.02;5.30;;;4.10;99.90;;;;;;5025550;28;20044;-34
2024/01/29 08:48:33;;;;;;;8.25;4.75;;;4.20;99.90;;;;;;5031337;28;20067;-35
2024/01/29 08:51:02;;;;;;;7.97;5.10;;;4.20;99.90;;;;;;5024678;28;20127;-35
2024/01/29 08:53:30;;;;;;;8.07;5.22;;;4.30;99.90;;;;;;5028010;28;20446;-35
2024/01/29 08:55:57;;;;;;;8.63;5.32;;;4.30;99.90;;;;;;5022633;28;20048;-34
2024/01/29 08:58:23;;;;;;;9.77;5.65;;;4.40;99.90;;;;;;5008979;28;20049;-35
2024/01/29 09:00:52;;;;;;;8.00;5.53;;;4.40;99.90;;;;;;5011642;28;20049;-35
2024/01/29 09:03:18;;;;;;;8.18;5.72;;;4.50;99.90;;;;;;5021954;28;20060;-35
2024/01/29 09:05:44;;;;;;;10.57;6.05;;;4.50;99.90;;;;;;5034716;28;20053;-35
2024/01/29 09:08:10;;;;;;;7.40;5.47;;;4.60;99.90;;;;;;5029699;28;20407;-34
2024/01/29 09:10:38;;;;;;;8.40;5.28;;;4.70;99.90;;;;;;5030183;28;20094;-35
2024/01/29 09:13:03;;;;;;;7.68;4.78;;;4.70;99.90;;;;;;5030507;28;20053;-34
2024/01/29 09:15:29;;;;;;;9.63;5.57;;;4.80;99.90;;;;;;5028819;28;20056;-35
2024/01/29 09:17:55;;;;;;;8.50;5.13;;;4.80;99.90;;;;;;5029834;28;20083;-35
2024/01/29 09:20:22;;;;;;;8.20;4.90;;;4.90;99.90;;;;;;5025703;28;20068;-34
2024/01/29 09:22:48;;;;;;;9.32;5.63;;;5.00;99.90;;;;;;5029700;28;20155;-34
2024/01/29 09:25:14;;;;;;;9.80;5.93;;;5.00;99.90;;;;;;5027299;28;20128;-34
2024/01/29 09:27:40;;;;;;;8.60;5.45;;;5.10;99.90;;;;;;5026696;28;20426;-34
2024/01/29 09:30:06;;;;;;;7.05;5.18;;;5.10;99.90;;;;;;5029718;28;20061;-32
2024/01/29 09:32:32;;;;;;;9.65;5.90;;;5.20;99.90;;;;;;5027461;28;20049;-35
2024/01/29 09:34:58;;;;;;;7.78;5.50;;;5.20;99.90;;;;;;5022031;28;20075;-34
2024/01/29 09:37:23;;;;;;;7.25;5.13;;;5.30;99.90;;;;;;5024431;28;20608;-34
2024/01/29 09:39:50;;;;;;;8.32;5.65;;;5.30;99.90;;;;;;5025620;28;20477;-34
2024/01/29 09:42:20;;;;;;;7.38;5.13;;;5.40;99.90;;;;;;5024894;28;20049;-35
2024/01/29 09:44:50;;;;;;;7.28;5.30;;;5.40;99.90;;;;;;5029178;28;20065;-35
2024/01/29 09:47:18;;;;;;;7.63;5.55;;;5.50;99.90;;;;;;5026365;28;20171;-34
2024/01/29 09:49:44;;;;;;;8.65;5.63;;;5.50;99.90;;;;;;5030750;28;20041;-35
2024/01/29 09:52:14;;;;;;;8.70;5.70;;;5.50;99.90;;;;;;5019774;28;20041;-35
2024/01/29 09:54:41;;;;;;;7.43;5.13;;;5.60;99.90;;;;;;5025185;28;20045;-36
2024/01/29 09:57:12;;;;;;;8.90;6.55;;;5.60;99.90;;;;;;5025292;28;20041;-36
2024/01/29 09:59:41;;;;;;;9.55;5.70;;;5.70;99.90;;;;;;5025254;28;20478;-36
2024/01/29 10:02:08;;;;;;;8.73;5.72;;;5.70;99.90;;;;;;5028444;28;20103;-35
2024/01/29 10:04:34;;;;;;;8.48;5.57;;;5.70;99.90;;;;;;5029440;28;20056;-35
2024/01/29 10:07:00;;;;;;;8.63;6.13;;;5.80;99.90;;;;;;5031199;28;20384;-35
2024/01/29 10:09:26;;;;;;;8.35;5.80;;;5.80;99.90;;;;;;5032839;28;20042;-35
2024/01/29 10:11:52;;;;;;;7.47;5.63;;;5.70;99.90;;;;;;5030203;28;20053;-36
2024/01/29 10:14:17;;;;;;;7.85;5.63;;;5.80;99.90;;;;;;5032603;28;20041;-38
2024/01/29 10:16:43;;;;;;;7.65;5.60;;;5.90;99.90;;;;;;5015211;28;20056;-35
2024/01/29 10:19:12;;;;;;;7.53;5.60;;;6.00;99.90;;;;;;5032692;28;20045;-35
2024/01/29 10:21:45;;;;;;;8.95;5.90;;;6.10;99.90;;;;;;5029598;28;20064;-35
2024/01/29 10:24:15;;;;;;;8.90;6.47;;;6.10;99.90;;;;;;5028870;28;20293;-36
2024/01/29 10:26:42;;;;;;;8.77;6.18;;;6.30;99.90;;;;;;5032876;28;20060;-35
2024/01/29 10:29:09;;;;;;;10.18;6.25;;;6.30;99.90;;;;;;5030952;28;20384;-35
2024/01/29 10:31:35;;;;;;;7.95;5.82;;;6.40;99.90;;;;;;5034180;28;20122;-35
2024/01/29 10:34:03;;;;;;;8.05;6.15;;;6.60;99.90;;;;;;5027888;28;20054;-35
2024/01/29 10:36:29;;;;;;;12.30;6.63;;;6.70;99.90;;;;;;5023119;28;20060;-35
2024/01/29 10:38:57;;;;;;;11.50;7.15;;;6.80;99.90;;;;;;5027936;28;20041;-35
2024/01/29 10:41:25;;;;;;;11.63;6.20;;;6.90;99.90;;;;;;5025001;28;20842;-35
2024/01/29 10:43:51;;;;;;;8.05;6.75;;;7.00;99.90;;;;;;5029549;28;20037;-35
2024/01/29 10:46:20;;;;;;;10.07;6.53;;;7.10;99.90;;;;;;5028549;28;20050;-35
2024/01/29 10:48:46;;;;;;;8.82;6.47;;;7.20;99.90;;;;;;5031361;28;20085;-35
2024/01/29 10:51:16;;;;;;;8.88;6.43;;;7.30;99.90;;;;;;5027140;28;20140;-35
2024/01/29 10:53:43;;;;;;;10.75;6.60;;;7.40;99.90;;;;;;5029886;28;20136;-36
2024/01/29 10:56:10;;;;;;;9.00;6.57;;;7.50;99.90;;;;;;5028186;28;20042;-35
2024/01/29 10:58:37;;;;;;;8.60;6.55;;;7.70;99.90;;;;;;5027217;28;20467;-36
2024/01/29 11:01:05;;;;;;;8.65;6.25;;;7.80;99.90;;;;;;5033545;28;20049;-36
2024/01/29 11:03:30;;;;;;;9.95;6.88;;;7.90;99.90;;;;;;5025781;28;20042;-34
2024/01/29 11:06:04;;;;;;;10.13;6.50;;;8.00;99.90;;;;;;5032375;28;20047;-34
2024/01/29 11:08:34;;;;;;;10.40;6.93;;;8.10;99.90;;;;;;5024412;28;20061;-34
2024/01/29 11:11:01;;;;;;;10.80;6.53;;;8.10;99.90;;;;;;5027590;28;20045;-34
2024/01/29 11:13:28;;;;;;;10.05;6.32;;;8.10;99.90;;;;;;5027189;28;20064;-34
2024/01/29 11:15:55;;;;;;;8.90;6.47;;;8.10;99.90;;;;;;5028762;28;20053;-34
2024/01/29 11:18:20;;;;;;;8.63;6.45;;;8.10;99.90;;;;;;5023661;28;20075;-34
2024/01/29 11:20:50;;;;;;;8.48;6.28;;;8.10;99.90;;;;;;5028157;28;20061;-35
2024/01/29 11:23:15;;;;;;;9.73;6.82;;;8.10;99.90;;;;;;5030620;28;20574;-35
2024/01/29 11:25:41;;;;;;;10.05;6.93;;;8.10;99.90;;;;;;5028035;28;20050;-35
2024/01/29 11:28:08;;;;;;;9.65;6.47;;;8.00;99.90;;;;;;5027456;28;20068;-34
2024/01/29 11:30:33;;;;;;;11.25;7.00;;;8.00;99.90;;;;;;5023786;28;20430;-34
2024/01/29 11:33:14;;;;;;;9.32;6.55;;;8.00;99.90;;;;;;5029324;28;20132;-34
2024/01/29 11:35:41;;;;;;;10.45;6.53;;;8.00;99.90;;;;;;5031199;28;20063;-35
2024/01/29 11:38:08;;;;;;;8.70;6.88;;;8.00;99.90;;;;;;5033344;28;20053;-35
2024/01/29 11:40:40;;;;;;;9.18;7.05;;;8.00;99.90;;;;;;5032111;28;20068;-35
2024/01/29 11:43:09;;;;;;;11.80;6.90;;;8.10;99.90;;;;;;5030717;28;20115;-35
2024/01/29 11:45:36;;;;;;;11.45;7.10;;;8.20;99.90;;;;;;5030207;28;20061;-38
2024/01/29 11:48:02;;;;;;;9.55;6.43;;;8.20;99.90;;;;;;5030178;28;20108;-35
2024/01/29 11:50:28;;;;;;;9.38;6.57;;;8.30;99.90;;;;;;5027578;28;20200;-35
2024/01/29 11:52:54;;;;;;;10.48;7.32;;;8.40;99.90;;;;;;5030129;28;20140;-35
2024/01/29 11:55:21;;;;;;;10.45;6.90;;;8.50;99.90;;;;;;5006176;28;20042;-36
2024/01/29 11:57:47;;;;;;;9.90;6.88;;;8.60;99.90;;;;;;5024483;28;20098;-34
2024/01/29 12:00:18;;;;;;;9.15;6.63;;;8.80;99.90;;;;;;5030545;28;20057;-34
2024/01/29 12:02:50;;;;;;;10.30;6.18;;;9.00;99.90;;;;;;5029084;28;20057;-35
2024/01/29 12:05:17;;;;;;;9.73;6.30;;;9.30;99.90;;;;;;5028250;28;20760;-35
2024/01/29 12:07:46;;;;;;;10.20;6.35;;;9.50;99.90;;;;;;5009759;28;20055;-35
2024/01/29 12:10:11;;;;;;;8.70;6.10;;;9.70;99.90;;;;;;5027437;28;20379;-35
2024/01/29 12:12:37;;;;;;;8.30;5.68;;;9.90;99.90;;;;;;5026538;28;20104;-35
2024/01/29 12:15:03;;;;;;;11.70;6.45;;;10.00;99.90;;;;;;5031840;28;20057;-35
2024/01/29 12:17:30;;;;;;;10.95;6.00;;;10.00;99.90;;;;;;5030091;28;20555;-35
2024/01/29 12:19:56;;;;;;;10.75;6.13;;;10.00;99.90;;;;;;5034383;28;20063;-35
2024/01/29 12:22:22;;;;;;;9.82;6.25;;;9.90;99.90;;;;;;5033085;28;20065;-34
2024/01/29 12:24:48;;;;;;;9.80;6.30;;;9.80;99.90;;;;;;5031629;28;20061;-35
2024/01/29 12:27:13;;;;;;;12.95;6.78;;;9.80;99.90;;;;;;5027984;28;20186;-34
2024/01/29 12:29:39;;;;;;;11.38;6.85;;;9.80;99.90;;;;;;5031698;28;20045;-34
2024/01/29 12:32:09;;;;;;;10.30;6.40;;;9.80;99.90;;;;;;5014439;28;20152;-34
2024/01/29 12:34:43;;;;;;;8.73;6.07;;;9.80;99.90;;;;;;5028559;28;20583;-35
2024/01/29 12:37:18;;;;;;;9.57;6.28;;;9.80;99.90;;;;;;5024260;28;20049;-34
2024/01/29 12:39:56;;;;;;;9.38;6.43;;;9.80;99.90;;;;;;5028420;28;20396;-34
2024/01/29 12:42:22;;;;;;;9.13;6.18;;;9.90;99.90;;;;;;5027162;28;20499;-34
2024/01/29 12:44:50;;;;;;;8.77;6.18;;;10.00;99.90;;;;;;5031317;28;20049;-34